createdAt,value
2023-04-28T00:01:12.089Z,11.59
2023-04-28T00:03:38.883Z,11.58
2023-04-28T00:06:05.968Z,11.57
2023-04-28T00:08:32.720Z,11.56
2023-04-28T00:10:59.186Z,11.56
2023-04-28T00:13:25.702Z,11.54
2023-04-28T00:15:55.264Z,11.54
2023-04-28T00:18:21.963Z,11.53
2023-04-28T00:20:48.557Z,11.52
2023-04-28T00:23:15.700Z,11.51
2023-04-28T00:25:42.095Z,11.50
2023-04-28T00:28:08.611Z,11.48
2023-04-28T00:30:34.952Z,11.48
2023-04-28T00:33:01.360Z,11.45
2023-04-28T00:35:27.881Z,11.44
2023-04-28T00:37:54.210Z,11.42
2023-04-28T00:40:21.011Z,11.41
2023-04-28T00:42:47.440Z,11.40
2023-04-28T00:45:13.762Z,11.39
2023-04-28T00:47:42.108Z,11.39
2023-04-28T00:50:10.424Z,11.39
2023-04-28T00:52:38.510Z,11.37
2023-04-28T00:55:05.482Z,11.36
2023-04-28T00:57:32.246Z,11.37
2023-04-28T00:59:58.639Z,11.37
2023-04-28T01:02:26.357Z,11.36
2023-04-28T01:04:54.371Z,11.37
2023-04-28T01:07:21.031Z,11.38
2023-04-28T01:09:47.968Z,11.38
2023-04-28T01:12:14.453Z,11.37
2023-04-28T01:14:40.973Z,11.38
2023-04-28T01:17:08.830Z,11.39
2023-04-28T01:19:35.920Z,11.38
2023-04-28T01:22:02.315Z,11.37
2023-04-28T01:24:28.719Z,11.38
2023-04-28T01:26:55.041Z,11.37
2023-04-28T01:29:21.973Z,11.36
2023-04-28T01:31:48.398Z,11.37
2023-04-28T01:34:14.995Z,11.36
2023-04-28T01:36:41.562Z,11.36
2023-04-28T01:39:08.230Z,11.36
2023-04-28T01:41:34.670Z,11.36
2023-04-28T01:44:01.181Z,11.35
2023-04-28T01:46:27.673Z,11.36
2023-04-28T01:48:54.029Z,11.37
2023-04-28T01:51:20.665Z,11.37
2023-04-28T01:53:47.090Z,11.38
2023-04-28T01:56:13.430Z,11.38
2023-04-28T01:58:39.897Z,11.38
2023-04-28T02:01:06.536Z,11.39
2023-04-28T02:03:33.011Z,11.39
2023-04-28T02:05:59.448Z,11.39
2023-04-28T02:08:25.779Z,11.38
2023-04-28T02:10:52.140Z,11.39
2023-04-28T02:13:18.533Z,11.39
2023-04-28T02:15:44.918Z,11.39
2023-04-28T02:18:11.427Z,11.41
2023-04-28T02:20:37.780Z,11.41
2023-04-28T02:23:04.124Z,11.42
2023-04-28T02:25:30.512Z,11.41
2023-04-28T02:27:57.381Z,11.42
2023-04-28T02:30:23.755Z,11.41
2023-04-28T02:32:50.211Z,11.40
2023-04-28T02:35:16.670Z,11.40
2023-04-28T02:37:43.047Z,11.38
2023-04-28T02:40:09.936Z,11.36
2023-04-28T02:42:36.479Z,11.37
2023-04-28T02:45:02.893Z,11.36
2023-04-28T02:47:29.298Z,11.37
2023-04-28T02:49:55.772Z,11.38
2023-04-28T02:52:22.095Z,11.40
2023-04-28T02:54:49.102Z,11.42
2023-04-28T02:57:15.605Z,11.48
2023-04-28T02:59:42.120Z,11.50
2023-04-28T03:02:09.150Z,11.55
2023-04-28T03:04:35.804Z,11.61
2023-04-28T03:07:02.438Z,11.64
2023-04-28T03:09:28.841Z,11.69
2023-04-28T03:11:55.209Z,11.72
2023-04-28T03:14:21.636Z,11.76
2023-04-28T03:16:48.310Z,11.79
2023-04-28T03:19:14.707Z,11.82
2023-04-28T03:21:41.260Z,11.84
2023-04-28T03:24:07.853Z,11.84
2023-04-28T03:26:34.901Z,11.84
2023-04-28T03:29:01.267Z,11.85
2023-04-28T03:31:27.707Z,11.86
2023-04-28T03:33:54.203Z,11.87
2023-04-28T03:36:20.641Z,11.88
2023-04-28T03:38:47.090Z,11.90
2023-04-28T03:41:13.516Z,11.92
2023-04-28T03:43:39.979Z,11.93
2023-04-28T03:46:06.654Z,11.95
2023-04-28T03:48:33.135Z,11.98
2023-04-28T03:50:59.549Z,12.00
2023-04-28T03:53:25.998Z,12.02
2023-04-28T03:55:52.430Z,12.04
2023-04-28T03:58:21.680Z,12.07
2023-04-28T04:00:48.046Z,12.08
2023-04-28T04:03:14.769Z,12.11
2023-04-28T04:05:41.457Z,12.15
2023-04-28T04:08:07.849Z,12.17
2023-04-28T04:10:34.355Z,12.18
2023-04-28T04:13:00.936Z,12.22
2023-04-28T04:15:27.302Z,12.24
2023-04-28T04:17:53.885Z,12.25
2023-04-28T04:20:20.353Z,12.28
2023-04-28T04:22:46.900Z,12.29
2023-04-28T04:25:13.282Z,12.30
2023-04-28T04:27:39.678Z,12.32
2023-04-28T04:30:07.235Z,12.33
2023-04-28T04:32:33.782Z,12.36
2023-04-28T04:35:00.210Z,12.36
2023-04-28T04:37:27.422Z,12.36
2023-04-28T04:39:53.790Z,12.37
2023-04-28T04:42:25.337Z,12.39
2023-04-28T04:44:52.614Z,12.41
2023-04-28T04:47:19.164Z,12.41
2023-04-28T04:49:45.651Z,12.41
2023-04-28T04:52:12.123Z,12.42
2023-04-28T04:54:38.568Z,12.43
2023-04-28T04:57:05.276Z,12.44
2023-04-28T04:59:31.711Z,12.47
2023-04-28T05:01:58.276Z,12.49
2023-04-28T05:04:24.933Z,12.50
2023-04-28T05:06:51.615Z,12.53
2023-04-28T05:09:18.009Z,12.56
2023-04-28T05:11:45.725Z,12.58
2023-04-28T05:14:12.172Z,12.61
2023-04-28T05:16:39.306Z,12.64
2023-04-28T05:19:06.000Z,12.66
2023-04-28T05:21:32.665Z,12.68
2023-04-28T05:23:59.418Z,12.71
2023-04-28T05:26:26.164Z,12.73
2023-04-28T05:28:52.667Z,12.77
2023-04-28T05:31:19.095Z,12.79
2023-04-28T05:33:45.971Z,12.80
2023-04-28T05:36:13.132Z,12.84
2023-04-28T05:38:39.578Z,12.85
2023-04-28T05:41:06.139Z,12.89
2023-04-28T05:43:32.538Z,12.92
2023-04-28T05:45:59.027Z,12.95
2023-04-28T05:48:25.707Z,12.98
2023-04-28T05:50:52.240Z,13.01
2023-04-28T05:53:18.724Z,13.04
2023-04-28T05:55:45.223Z,13.07
2023-04-28T05:58:11.643Z,13.10
2023-04-28T06:00:38.019Z,13.14
2023-04-28T06:03:05.564Z,13.17
2023-04-28T06:05:32.405Z,13.20
2023-04-28T06:07:59.130Z,13.23
2023-04-28T06:10:26.824Z,13.26
2023-04-28T06:12:53.153Z,13.29
2023-04-28T06:15:19.676Z,13.31
2023-04-28T06:17:46.635Z,13.34
2023-04-28T06:20:13.972Z,13.37
2023-04-28T06:22:41.507Z,13.39
2023-04-28T06:25:08.685Z,13.44
2023-04-28T06:27:35.104Z,13.47
2023-04-28T06:30:01.505Z,13.50
2023-04-28T06:32:28.008Z,13.53
2023-04-28T06:34:55.336Z,13.56
2023-04-28T06:37:23.112Z,13.59
2023-04-28T06:39:49.450Z,13.64
2023-04-28T06:42:18.411Z,13.67
2023-04-28T06:44:45.693Z,13.71
2023-04-28T06:47:12.126Z,13.75
2023-04-28T06:49:38.674Z,13.80
2023-04-28T06:52:05.100Z,13.83
2023-04-28T06:54:31.510Z,13.88
2023-04-28T06:56:57.964Z,13.91
2023-04-28T06:59:24.300Z,13.96
2023-04-28T07:01:50.781Z,14.00
2023-04-28T07:04:18.166Z,14.04
2023-04-28T07:06:44.947Z,14.08
2023-04-28T07:09:11.380Z,14.12
2023-04-28T07:11:37.781Z,14.15
2023-04-28T07:14:04.139Z,14.19
2023-04-28T07:16:30.800Z,14.22
2023-04-28T07:18:57.400Z,14.26
2023-04-28T07:21:23.843Z,14.30
2023-04-28T07:23:50.363Z,14.37
2023-04-28T07:26:16.928Z,14.44
2023-04-28T07:28:44.661Z,14.52
2023-04-28T07:31:11.393Z,14.58
2023-04-28T07:33:37.858Z,14.66
2023-04-28T07:36:04.713Z,14.76
2023-04-28T07:38:31.260Z,14.87
2023-04-28T07:40:57.713Z,14.96
2023-04-28T07:43:24.123Z,15.03
2023-04-28T07:45:50.736Z,15.10
2023-04-28T07:48:17.462Z,15.13
2023-04-28T07:50:43.956Z,15.15
2023-04-28T07:53:10.659Z,15.18
2023-04-28T07:55:37.305Z,15.19
2023-04-28T07:58:03.768Z,15.19
2023-04-28T08:00:30.209Z,15.20
2023-04-28T08:02:57.744Z,15.22
2023-04-28T08:05:24.546Z,15.22
2023-04-28T08:07:51.052Z,15.22
2023-04-28T08:10:17.707Z,15.22
2023-04-28T08:12:45.308Z,15.22
2023-04-28T08:15:12.576Z,15.22
2023-04-28T08:17:39.324Z,15.22
2023-04-28T08:20:06.868Z,15.24
2023-04-28T08:22:33.314Z,15.22
2023-04-28T08:24:59.714Z,15.22
2023-04-28T08:27:26.343Z,15.23
2023-04-28T08:29:52.897Z,15.22
2023-04-28T08:32:19.328Z,15.22
2023-04-28T08:34:45.679Z,15.24
2023-04-28T08:37:12.202Z,15.27
2023-04-28T08:39:38.621Z,15.30
2023-04-28T08:42:05.514Z,15.34
2023-04-28T08:44:39.595Z,15.39
2023-04-28T08:47:13.995Z,15.44
2023-04-28T08:49:41.491Z,15.46
2023-04-28T08:52:12.929Z,15.51
2023-04-28T08:54:43.263Z,15.55
2023-04-28T08:57:10.938Z,15.61
2023-04-28T08:59:41.610Z,15.69
2023-04-28T09:02:09.652Z,15.78
2023-04-28T09:04:36.804Z,15.86
2023-04-28T09:07:03.394Z,15.93
2023-04-28T09:09:34.141Z,15.96
2023-04-28T09:12:03.831Z,16.00
2023-04-28T09:14:35.364Z,16.08
2023-04-28T09:17:03.496Z,16.12
2023-04-28T09:19:34.482Z,16.18
2023-04-28T09:22:05.588Z,16.23
2023-04-28T09:24:40.575Z,16.28
2023-04-28T09:27:10.665Z,16.33
2023-04-28T09:29:52.862Z,16.37
2023-04-28T09:32:21.621Z,16.40
2023-04-28T09:34:53.675Z,16.45
2023-04-28T09:37:22.661Z,16.51
2023-04-28T09:39:54.399Z,16.59
2023-04-28T09:42:44.205Z,16.72
2023-04-28T09:45:12.630Z,16.82
2023-04-28T09:47:41.089Z,16.97
2023-04-28T09:50:09.469Z,17.14
2023-04-28T09:52:36.703Z,17.33
2023-04-28T09:55:08.613Z,17.52
2023-04-28T09:57:36.171Z,17.72
2023-04-28T10:00:06.413Z,17.91
2023-04-28T10:05:08.978Z,18.21
2023-04-28T10:07:36.191Z,18.35
2023-04-28T10:10:04.131Z,18.49
2023-04-28T10:12:30.604Z,18.59
2023-04-28T10:14:58.304Z,18.70
2023-04-28T10:17:29.346Z,18.80
2023-04-28T10:19:56.443Z,18.93
2023-04-28T10:22:40.973Z,19.08
2023-04-28T10:25:11.658Z,19.18
2023-04-28T10:27:43.663Z,19.33
2023-04-28T10:30:27.339Z,19.45
2023-04-28T10:33:13.332Z,19.58
2023-04-28T10:35:40.878Z,19.69
2023-04-28T10:38:33.366Z,19.84
2023-04-28T10:41:03.284Z,20.03
2023-04-28T10:43:30.825Z,20.17
2023-04-28T10:45:59.987Z,20.31
2023-04-28T10:48:26.325Z,20.45
2023-04-28T10:51:09.360Z,20.59
2023-04-28T10:53:45.360Z,20.73
2023-04-28T10:56:21.410Z,20.83
2023-04-28T10:59:28.778Z,20.96
2023-04-28T11:01:55.499Z,21.08
2023-04-28T11:04:24.201Z,21.19
2023-04-28T11:07:10.164Z,21.31
2023-04-28T11:09:36.432Z,21.36
2023-04-28T11:12:06.857Z,21.42
2023-04-28T11:14:35.114Z,21.45
2023-04-28T11:17:11.397Z,21.50
2023-04-28T11:19:45.736Z,21.52
2023-04-28T11:22:16.153Z,21.54
2023-04-28T11:24:58.474Z,21.57
2023-04-28T11:27:26.717Z,21.60
2023-04-28T11:29:53.974Z,21.65
2023-04-28T11:32:31.735Z,21.72
2023-04-28T11:34:58.159Z,21.75
2023-04-28T11:37:25.214Z,21.78
2023-04-28T11:39:51.647Z,21.81
2023-04-28T11:42:18.090Z,21.86
2023-04-28T11:44:52.727Z,21.95
2023-04-28T11:47:30.425Z,22.04
2023-04-28T11:49:57.771Z,22.06
2023-04-28T11:52:24.131Z,22.11
2023-04-28T11:54:58.164Z,22.16
2023-04-28T11:57:25.309Z,22.19
2023-04-28T11:59:51.718Z,22.25
2023-04-28T12:02:29.699Z,22.30
2023-04-28T12:04:56.789Z,22.33
2023-04-28T12:07:23.578Z,22.41
2023-04-28T12:10:11.806Z,22.49
2023-04-28T12:15:08.496Z,22.63
2023-04-28T12:17:38.930Z,22.68
2023-04-28T12:20:07.772Z,22.72
2023-04-28T12:22:44.213Z,22.74
2023-04-28T12:25:12.827Z,22.73
2023-04-28T12:27:40.940Z,22.70
2023-04-28T12:30:20.532Z,22.67
2023-04-28T12:32:47.473Z,22.62
2023-04-28T12:35:14.278Z,22.59
2023-04-28T12:37:42.413Z,22.57
2023-04-28T12:40:09.712Z,22.53
2023-04-28T12:42:37.392Z,22.46
2023-04-28T12:45:04.152Z,22.40
2023-04-28T12:47:31.566Z,22.31
2023-04-28T12:49:58.358Z,22.20
2023-04-28T12:52:24.766Z,22.09
2023-04-28T12:54:51.201Z,21.98
2023-04-28T12:57:19.192Z,21.88
2023-04-28T12:59:50.497Z,21.82
2023-04-28T13:02:17.224Z,21.79
2023-04-28T13:04:46.028Z,21.76
2023-04-28T13:07:13.358Z,21.73
2023-04-28T13:09:40.004Z,21.70
2023-04-28T13:12:07.412Z,21.65
2023-04-28T13:14:34.107Z,21.61
2023-04-28T13:17:02.400Z,21.56
2023-04-28T13:19:30.232Z,21.53
2023-04-28T13:21:56.987Z,21.47
2023-04-28T13:24:23.406Z,21.39
2023-04-28T13:26:49.846Z,21.29
2023-04-28T13:29:16.233Z,21.20
2023-04-28T13:31:42.721Z,21.10
2023-04-28T13:34:15.609Z,21.02
2023-04-28T13:36:43.093Z,20.91
2023-04-28T13:39:14.409Z,20.81
2023-04-28T13:41:41.084Z,20.70
2023-04-28T13:44:07.712Z,20.59
2023-04-28T13:46:34.131Z,20.47
2023-04-28T13:49:00.793Z,20.35
2023-04-28T13:51:28.641Z,20.24
2023-04-28T13:53:55.041Z,20.12
2023-04-28T13:56:21.701Z,20.04
2023-04-28T13:58:48.073Z,19.94
2023-04-28T14:01:14.629Z,19.89
2023-04-28T14:03:41.454Z,19.85
2023-04-28T14:06:08.270Z,19.80
2023-04-28T14:08:34.805Z,19.76
2023-04-28T14:11:01.361Z,19.72
2023-04-28T14:13:27.752Z,19.65
2023-04-28T14:15:59.179Z,19.60
2023-04-28T14:18:27.073Z,19.55
2023-04-28T14:20:54.505Z,19.49
2023-04-28T14:23:24.145Z,19.44
2023-04-28T14:25:55.997Z,19.41
2023-04-28T14:28:22.757Z,19.35
2023-04-28T14:30:50.078Z,19.30
2023-04-28T14:33:16.641Z,19.25
2023-04-28T14:35:43.102Z,19.21
2023-04-28T14:38:09.616Z,19.18
2023-04-28T14:40:36.072Z,19.15
2023-04-28T14:43:02.459Z,19.14
2023-04-28T14:45:28.917Z,19.12
2023-04-28T14:47:56.035Z,19.16
2023-04-28T14:50:22.653Z,19.21
2023-04-28T14:52:49.558Z,19.28
2023-04-28T14:55:16.095Z,19.39
2023-04-28T14:57:42.735Z,19.50
2023-04-28T15:00:09.732Z,19.62
2023-04-28T15:02:36.400Z,19.72
2023-04-28T15:05:03.466Z,19.85
2023-04-28T15:07:31.521Z,19.95
2023-04-28T15:09:59.435Z,20.06
2023-04-28T15:12:26.838Z,20.14
2023-04-28T15:14:53.817Z,20.21
2023-04-28T15:17:21.548Z,20.28
2023-04-28T15:19:48.018Z,20.33
2023-04-28T15:22:14.464Z,20.38
2023-04-28T15:24:41.246Z,20.43
2023-04-28T15:27:07.840Z,20.44
2023-04-28T15:29:34.350Z,20.45
2023-04-28T15:32:00.826Z,20.43
2023-04-28T15:34:27.340Z,20.40
2023-04-28T15:36:53.814Z,20.36
2023-04-28T15:39:20.469Z,20.30
2023-04-28T15:41:47.188Z,20.27
2023-04-28T15:44:13.705Z,20.24
2023-04-28T15:49:16.708Z,20.13
2023-04-28T15:51:43.036Z,20.09
2023-04-28T15:54:09.472Z,20.06
2023-04-28T15:56:35.870Z,20.01
2023-04-28T15:59:02.381Z,19.98
2023-04-28T16:01:29.551Z,19.93
2023-04-28T16:03:56.180Z,19.90
2023-04-28T16:06:22.775Z,19.85
2023-04-28T16:08:49.156Z,19.78
2023-04-28T16:11:19.272Z,19.71
2023-04-28T16:13:45.677Z,19.63
2023-04-28T16:16:12.491Z,19.55
2023-04-28T16:18:39.367Z,19.46
2023-04-28T16:21:05.830Z,19.36
2023-04-28T16:23:32.212Z,19.26
2023-04-28T16:25:58.649Z,19.16
2023-04-28T16:28:25.076Z,19.07
2023-04-28T16:30:51.425Z,18.99
2023-04-28T16:33:17.813Z,18.91
2023-04-28T16:35:44.328Z,18.83
2023-04-28T16:38:11.767Z,18.76
2023-04-28T16:40:38.147Z,18.72
2023-04-28T16:43:04.552Z,18.69
2023-04-28T16:45:30.897Z,18.63
2023-04-28T16:47:57.366Z,18.59
2023-04-28T16:50:23.741Z,18.55
2023-04-28T16:52:50.140Z,18.51
2023-04-28T16:55:18.308Z,18.49
2023-04-28T16:57:45.523Z,18.46
2023-04-28T17:00:12.420Z,18.43
2023-04-28T17:02:38.910Z,18.40
2023-04-28T17:05:05.487Z,18.36
2023-04-28T17:07:31.855Z,18.32
2023-04-28T17:09:58.238Z,18.30
2023-04-28T17:12:25.136Z,18.29
2023-04-28T17:14:51.572Z,18.29
2023-04-28T17:17:18.112Z,18.27
2023-04-28T17:19:44.468Z,18.26
2023-04-28T17:22:11.014Z,18.23
2023-04-28T17:24:37.522Z,18.22
2023-04-28T17:27:04.029Z,18.20
2023-04-28T17:29:30.971Z,18.19
2023-04-28T17:31:57.512Z,18.15
2023-04-28T17:34:24.016Z,18.12
2023-04-28T17:36:50.530Z,18.10
2023-04-28T17:39:17.135Z,18.06
2023-04-28T17:41:43.695Z,18.04
2023-04-28T17:44:10.070Z,18.00
2023-04-28T17:46:37.705Z,17.98
2023-04-28T17:49:04.637Z,17.94
2023-04-28T17:51:32.170Z,17.92
2023-04-28T17:53:59.320Z,17.89
2023-04-28T17:56:26.242Z,17.84
2023-04-28T17:58:52.757Z,17.81
2023-04-28T18:01:19.546Z,17.76
2023-04-28T18:03:46.249Z,17.71
2023-04-28T18:06:13.714Z,17.68
2023-04-28T18:08:40.948Z,17.66
2023-04-28T18:11:09.015Z,17.64
2023-04-28T18:13:35.460Z,17.64
2023-04-28T18:16:04.466Z,17.60
2023-04-28T18:18:33.306Z,17.58
2023-04-28T18:21:02.265Z,17.54
2023-04-28T18:23:30.248Z,17.53
2023-04-28T18:25:56.706Z,17.51
2023-04-28T18:28:23.121Z,17.49
2023-04-28T18:30:49.906Z,17.47
2023-04-28T18:33:22.803Z,17.43
2023-04-28T18:35:49.569Z,17.40
2023-04-28T18:38:15.968Z,17.37
2023-04-28T18:40:42.331Z,17.33
2023-04-28T18:43:13.189Z,17.29
2023-04-28T18:45:41.286Z,17.25
2023-04-28T18:48:08.969Z,17.23
2023-04-28T18:50:36.309Z,17.18
2023-04-28T18:53:04.439Z,17.15
2023-04-28T18:55:34.226Z,17.12
2023-04-28T18:58:02.010Z,17.09
2023-04-28T19:00:28.756Z,17.06
2023-04-28T19:02:55.173Z,17.03
2023-04-28T19:05:22.303Z,17.02
2023-04-28T19:07:48.885Z,17.01
2023-04-28T19:10:15.696Z,16.99
2023-04-28T19:12:42.043Z,16.99
2023-04-28T19:15:08.613Z,16.98
2023-04-28T19:17:35.053Z,16.96
2023-04-28T19:20:01.505Z,16.95
2023-04-28T19:22:35.888Z,16.94
2023-04-28T19:25:04.337Z,16.92
2023-04-28T19:27:32.277Z,16.91
2023-04-28T19:30:02.972Z,16.91
2023-04-28T19:32:30.312Z,16.90
2023-04-28T19:34:56.874Z,16.89
2023-04-28T19:37:23.904Z,16.88
2023-04-28T19:39:51.085Z,16.87
2023-04-28T19:42:18.178Z,16.86
2023-04-28T19:44:45.841Z,16.85
2023-04-28T19:47:12.737Z,16.84
2023-04-28T19:49:41.359Z,16.82
2023-04-28T19:52:10.125Z,16.81
2023-04-28T19:54:38.802Z,16.77
2023-04-28T19:57:05.445Z,16.76
2023-04-28T19:59:31.987Z,16.74
2023-04-28T20:01:58.751Z,16.73
2023-04-28T20:04:26.189Z,16.72
2023-04-28T20:06:53.590Z,16.70
2023-04-28T20:09:20.059Z,16.70
2023-04-28T20:11:46.880Z,16.66
2023-04-28T20:14:13.858Z,16.65
2023-04-28T20:16:40.371Z,16.63
2023-04-28T20:19:06.834Z,16.63
2023-04-28T20:21:35.059Z,16.60
2023-04-28T20:24:02.079Z,16.59
2023-04-28T20:26:28.761Z,16.58
2023-04-28T20:28:57.107Z,16.57
2023-04-28T20:31:23.564Z,16.57
2023-04-28T20:33:50.134Z,16.56
2023-04-28T20:36:16.549Z,16.55
2023-04-28T20:38:43.388Z,16.56
2023-04-28T20:41:10.398Z,16.55
2023-04-28T20:43:37.367Z,16.52
2023-04-28T20:46:09.875Z,16.50
2023-04-28T20:48:36.811Z,16.48
2023-04-28T20:51:05.018Z,16.45
2023-04-28T20:53:33.156Z,16.43
2023-04-28T20:55:59.548Z,16.42
2023-04-28T20:58:26.057Z,16.38
2023-04-28T21:00:53.176Z,16.37
2023-04-28T21:03:23.344Z,16.35
2023-04-28T21:05:49.911Z,16.32
2023-04-28T21:08:16.428Z,16.30
2023-04-28T21:10:42.835Z,16.27
2023-04-28T21:13:09.795Z,16.24
2023-04-28T21:15:40.313Z,16.22
2023-04-28T21:18:07.099Z,16.19
2023-04-28T21:20:33.531Z,16.17
2023-04-28T21:22:59.868Z,16.15
2023-04-28T21:25:26.323Z,16.13
2023-04-28T21:27:53.160Z,16.11
2023-04-28T21:30:20.700Z,16.10
2023-04-28T21:32:47.367Z,16.08
2023-04-28T21:35:13.988Z,16.07
2023-04-28T21:37:40.753Z,16.06
2023-04-28T21:40:08.907Z,16.04
2023-04-28T21:42:35.492Z,16.02
2023-04-28T21:45:01.841Z,16.00
2023-04-28T21:47:28.382Z,15.99
2023-04-28T21:49:54.823Z,15.99
2023-04-28T21:52:21.169Z,15.98
2023-04-28T21:54:47.556Z,15.98
2023-04-28T21:57:15.643Z,15.96
2023-04-28T21:59:42.235Z,15.96
2023-04-28T22:02:09.061Z,15.95
2023-04-28T22:04:35.741Z,15.93
2023-04-28T22:07:02.639Z,15.92
2023-04-28T22:09:29.069Z,15.90
2023-04-28T22:11:55.404Z,15.89
2023-04-28T22:14:39.364Z,15.88
2023-04-28T22:17:07.581Z,15.88
2023-04-28T22:19:34.089Z,15.87
2023-04-28T22:22:00.566Z,15.87
2023-04-28T22:24:27.694Z,15.85
2023-04-28T22:26:54.811Z,15.82
2023-04-28T22:29:21.420Z,15.79
2023-04-28T22:31:47.855Z,15.75
2023-04-28T22:34:14.409Z,15.70
2023-04-28T22:36:41.436Z,15.66
2023-04-28T22:39:07.896Z,15.61
2023-04-28T22:41:34.237Z,15.54
2023-04-28T22:44:00.619Z,15.45
2023-04-28T22:46:28.155Z,15.35
2023-04-28T22:48:54.532Z,15.24
2023-04-28T22:51:20.900Z,15.16
2023-04-28T22:53:48.314Z,15.07
2023-04-28T22:56:15.412Z,14.98
2023-04-28T22:58:41.892Z,14.90
2023-04-28T23:01:08.449Z,14.84
2023-04-28T23:03:34.917Z,14.77
2023-04-28T23:06:01.386Z,14.73
2023-04-28T23:08:27.722Z,14.70
2023-04-28T23:10:56.198Z,14.67
2023-04-28T23:13:22.714Z,14.65
2023-04-28T23:15:49.181Z,14.65
2023-04-28T23:18:15.548Z,14.61
2023-04-28T23:20:42.011Z,14.59
2023-04-28T23:23:08.367Z,14.57
2023-04-28T23:25:34.701Z,14.57
2023-04-28T23:28:01.123Z,14.54
2023-04-28T23:30:27.525Z,14.53
2023-04-28T23:32:53.923Z,14.49
2023-04-28T23:35:20.478Z,14.46
2023-04-28T23:37:47.259Z,14.45
2023-04-28T23:40:13.845Z,14.43
2023-04-28T23:42:40.989Z,14.41
2023-04-28T23:45:08.376Z,14.40
2023-04-28T23:47:34.695Z,14.40
2023-04-28T23:50:01.077Z,14.40
2023-04-28T23:52:27.408Z,14.40
2023-04-28T23:54:53.724Z,14.41
2023-04-28T23:57:20.223Z,14.42
2023-04-28T23:59:47.253Z,14.44
